sensor_id;sensor_type;location;lat;lon;timestamp;temperature;humidity
36652;DHT22;53334;51.976;20.144;2022-11-20T00:01:57;24.70;44.60
36652;DHT22;53334;51.976;20.144;2022-11-20T00:04:30;24.70;44.60
36652;DHT22;53334;51.976;20.144;2022-11-20T00:07:04;24.70;44.50
36652;DHT22;53334;51.976;20.144;2022-11-20T00:09:38;24.70;44.60
36652;DHT22;53334;51.976;20.144;2022-11-20T00:12:13;24.70;44.60
36652;DHT22;53334;51.976;20.144;2022-11-20T00:14:47;24.70;44.50
36652;DHT22;53334;51.976;20.144;2022-11-20T00:17:20;24.70;44.60
36652;DHT22;53334;51.976;20.144;2022-11-20T00:19:54;24.70;44.50
36652;DHT22;53334;51.976;20.144;2022-11-20T00:22:27;24.70;44.60
36652;DHT22;53334;51.976;20.144;2022-11-20T00:25:01;24.70;44.50
36652;DHT22;53334;51.976;20.144;2022-11-20T00:27:36;24.70;44.70
36652;DHT22;53334;51.976;20.144;2022-11-20T00:30:10;24.60;44.80
36652;DHT22;53334;51.976;20.144;2022-11-20T00:32:46;24.70;45.10
36652;DHT22;53334;51.976;20.144;2022-11-20T00:35:20;24.70;45.30
36652;DHT22;53334;51.976;20.144;2022-11-20T00:37:53;24.60;45.30
36652;DHT22;53334;51.976;20.144;2022-11-20T00:40:27;24.70;45.50
36652;DHT22;53334;51.976;20.144;2022-11-20T00:43:02;24.70;45.60
36652;DHT22;53334;51.976;20.144;2022-11-20T00:45:36;24.70;45.30
36652;DHT22;53334;51.976;20.144;2022-11-20T00:48:10;24.70;45.60
36652;DHT22;53334;51.976;20.144;2022-11-20T00:50:43;24.70;45.60
36652;DHT22;53334;51.976;20.144;2022-11-20T00:53:17;24.60;45.20
36652;DHT22;53334;51.976;20.144;2022-11-20T00:55:55;24.60;45.50
36652;DHT22;53334;51.976;20.144;2022-11-20T00:58:32;24.60;45.50
36652;DHT22;53334;51.976;20.144;2022-11-20T01:01:07;24.70;45.70
36652;DHT22;53334;51.976;20.144;2022-11-20T01:03:43;24.70;45.60
36652;DHT22;53334;51.976;20.144;2022-11-20T01:06:18;24.70;45.80
36652;DHT22;53334;51.976;20.144;2022-11-20T01:08:54;24.70;45.90
36652;DHT22;53334;51.976;20.144;2022-11-20T01:11:29;24.70;45.90
36652;DHT22;53334;51.976;20.144;2022-11-20T01:14:06;24.70;45.90
36652;DHT22;53334;51.976;20.144;2022-11-20T01:16:42;24.70;46.00
36652;DHT22;53334;51.976;20.144;2022-11-20T01:19:22;24.70;46.00
36652;DHT22;53334;51.976;20.144;2022-11-20T01:21:56;24.70;45.90
36652;DHT22;53334;51.976;20.144;2022-11-20T01:24:30;24.70;45.90
36652;DHT22;53334;51.976;20.144;2022-11-20T01:27:04;24.70;45.50
36652;DHT22;53334;51.976;20.144;2022-11-20T01:29:38;24.70;45.80
36652;DHT22;53334;51.976;20.144;2022-11-20T01:32:12;24.70;45.50
36652;DHT22;53334;51.976;20.144;2022-11-20T01:34:46;24.70;45.70
36652;DHT22;53334;51.976;20.144;2022-11-20T01:37:20;24.70;45.40
36652;DHT22;53334;51.976;20.144;2022-11-20T01:39:53;24.70;45.60
36652;DHT22;53334;51.976;20.144;2022-11-20T01:42:27;24.70;45.40
36652;DHT22;53334;51.976;20.144;2022-11-20T01:45:50;24.70;45.60
36652;DHT22;53334;51.976;20.144;2022-11-20T01:48:30;24.70;45.40
36652;DHT22;53334;51.976;20.144;2022-11-20T01:51:10;24.70;45.60
36652;DHT22;53334;51.976;20.144;2022-11-20T01:53:46;24.70;45.70
36652;DHT22;53334;51.976;20.144;2022-11-20T01:56:21;24.70;45.70
36652;DHT22;53334;51.976;20.144;2022-11-20T01:58:59;24.70;45.70
36652;DHT22;53334;51.976;20.144;2022-11-20T02:01:37;24.70;45.80
36652;DHT22;53334;51.976;20.144;2022-11-20T02:04:12;24.70;45.80
36652;DHT22;53334;51.976;20.144;2022-11-20T02:06:49;24.70;45.90
36652;DHT22;53334;51.976;20.144;2022-11-20T02:09:24;24.70;45.90
36652;DHT22;53334;51.976;20.144;2022-11-20T02:11:59;24.70;45.80
36652;DHT22;53334;51.976;20.144;2022-11-20T02:14:34;24.70;45.80
36652;DHT22;53334;51.976;20.144;2022-11-20T02:17:08;24.70;45.90
36652;DHT22;53334;51.976;20.144;2022-11-20T02:19:42;24.70;45.90
36652;DHT22;53334;51.976;20.144;2022-11-20T02:22:19;24.70;45.90
36652;DHT22;53334;51.976;20.144;2022-11-20T02:25:00;24.70;45.90
36652;DHT22;53334;51.976;20.144;2022-11-20T02:27:35;24.70;45.90
36652;DHT22;53334;51.976;20.144;2022-11-20T02:30:10;24.70;46.00
36652;DHT22;53334;51.976;20.144;2022-11-20T02:32:45;24.80;46.10
36652;DHT22;53334;51.976;20.144;2022-11-20T02:38:33;24.70;45.90
36652;DHT22;53334;51.976;20.144;2022-11-20T02:41:08;24.70;46.00
36652;DHT22;53334;51.976;20.144;2022-11-20T02:43:42;24.70;45.80
36652;DHT22;53334;51.976;20.144;2022-11-20T02:46:16;24.70;46.10
36652;DHT22;53334;51.976;20.144;2022-11-20T02:48:50;24.70;45.90
36652;DHT22;53334;51.976;20.144;2022-11-20T02:51:23;24.70;46.20
36652;DHT22;53334;51.976;20.144;2022-11-20T02:53:57;24.70;46.00
36652;DHT22;53334;51.976;20.144;2022-11-20T02:56:32;24.70;46.10
36652;DHT22;53334;51.976;20.144;2022-11-20T02:59:06;24.70;46.10
36652;DHT22;53334;51.976;20.144;2022-11-20T03:01:40;24.70;46.20
36652;DHT22;53334;51.976;20.144;2022-11-20T03:04:14;24.70;46.20
36652;DHT22;53334;51.976;20.144;2022-11-20T03:06:48;24.70;46.20
36652;DHT22;53334;51.976;20.144;2022-11-20T03:09:22;24.70;46.20
36652;DHT22;53334;51.976;20.144;2022-11-20T03:11:57;24.70;46.20
36652;DHT22;53334;51.976;20.144;2022-11-20T03:14:31;24.70;45.90
36652;DHT22;53334;51.976;20.144;2022-11-20T03:17:04;24.70;46.30
36652;DHT22;53334;51.976;20.144;2022-11-20T03:19:38;24.60;46.00
36652;DHT22;53334;51.976;20.144;2022-11-20T03:22:12;24.60;46.30
36652;DHT22;53334;51.976;20.144;2022-11-20T03:24:45;24.60;46.80
36652;DHT22;53334;51.976;20.144;2022-11-20T03:27:20;24.70;46.50
36652;DHT22;53334;51.976;20.144;2022-11-20T03:29:54;24.60;46.20
36652;DHT22;53334;51.976;20.144;2022-11-20T03:32:27;24.60;46.50
36652;DHT22;53334;51.976;20.144;2022-11-20T03:35:02;24.60;46.20
36652;DHT22;53334;51.976;20.144;2022-11-20T03:37:36;24.70;46.60
36652;DHT22;53334;51.976;20.144;2022-11-20T03:40:09;24.60;46.60
36652;DHT22;53334;51.976;20.144;2022-11-20T03:42:45;24.60;46.40
36652;DHT22;53334;51.976;20.144;2022-11-20T03:45:19;24.70;46.60
36652;DHT22;53334;51.976;20.144;2022-11-20T03:47:52;24.60;46.60
36652;DHT22;53334;51.976;20.144;2022-11-20T03:50:26;24.60;46.30
36652;DHT22;53334;51.976;20.144;2022-11-20T03:53:00;24.60;46.50
36652;DHT22;53334;51.976;20.144;2022-11-20T03:55:33;24.70;46.30
36652;DHT22;53334;51.976;20.144;2022-11-20T03:58:08;24.60;46.50
36652;DHT22;53334;51.976;20.144;2022-11-20T04:00:42;24.60;46.40
36652;DHT22;53334;51.976;20.144;2022-11-20T04:03:17;24.60;46.60
36652;DHT22;53334;51.976;20.144;2022-11-20T04:05:51;24.60;46.60
36652;DHT22;53334;51.976;20.144;2022-11-20T04:08:24;24.60;46.70
36652;DHT22;53334;51.976;20.144;2022-11-20T04:11:09;24.60;46.30
36652;DHT22;53334;51.976;20.144;2022-11-20T04:13:47;24.60;46.40
36652;DHT22;53334;51.976;20.144;2022-11-20T04:16:22;24.70;46.70
36652;DHT22;53334;51.976;20.144;2022-11-20T04:18:57;24.70;46.60
36652;DHT22;53334;51.976;20.144;2022-11-20T04:21:31;24.70;46.70
36652;DHT22;53334;51.976;20.144;2022-11-20T04:24:05;24.70;46.60
36652;DHT22;53334;51.976;20.144;2022-11-20T04:26:40;24.70;46.30
36652;DHT22;53334;51.976;20.144;2022-11-20T04:29:15;24.60;46.60
36652;DHT22;53334;51.976;20.144;2022-11-20T04:31:49;24.60;46.60
36652;DHT22;53334;51.976;20.144;2022-11-20T04:34:23;24.60;46.60
36652;DHT22;53334;51.976;20.144;2022-11-20T04:36:57;24.60;46.30
36652;DHT22;53334;51.976;20.144;2022-11-20T04:39:30;24.60;46.70
36652;DHT22;53334;51.976;20.144;2022-11-20T04:42:04;24.60;46.50
36652;DHT22;53334;51.976;20.144;2022-11-20T04:44:57;24.60;46.80
36652;DHT22;53334;51.976;20.144;2022-11-20T04:47:31;24.60;46.80
36652;DHT22;53334;51.976;20.144;2022-11-20T04:50:05;24.60;46.80
36652;DHT22;53334;51.976;20.144;2022-11-20T04:52:39;24.60;46.50
36652;DHT22;53334;51.976;20.144;2022-11-20T04:55:13;24.70;46.70
36652;DHT22;53334;51.976;20.144;2022-11-20T04:57:49;24.60;46.30
36652;DHT22;53334;51.976;20.144;2022-11-20T05:00:25;24.60;46.60
36652;DHT22;53334;51.976;20.144;2022-11-20T05:02:59;24.60;46.70
36652;DHT22;53334;51.976;20.144;2022-11-20T05:05:33;24.60;46.60
36652;DHT22;53334;51.976;20.144;2022-11-20T05:08:06;24.60;46.20
36652;DHT22;53334;51.976;20.144;2022-11-20T05:10:40;24.60;46.60
36652;DHT22;53334;51.976;20.144;2022-11-20T05:13:14;24.60;46.20
36652;DHT22;53334;51.976;20.144;2022-11-20T05:15:49;24.60;46.60
36652;DHT22;53334;51.976;20.144;2022-11-20T05:18:23;24.60;46.90
36652;DHT22;53334;51.976;20.144;2022-11-20T05:20:56;24.60;46.70
36652;DHT22;53334;51.976;20.144;2022-11-20T05:23:31;24.60;46.60
36652;DHT22;53334;51.976;20.144;2022-11-20T05:26:06;24.60;46.90
36652;DHT22;53334;51.976;20.144;2022-11-20T05:28:40;24.60;47.00
36652;DHT22;53334;51.976;20.144;2022-11-20T05:31:15;24.60;47.00
36652;DHT22;53334;51.976;20.144;2022-11-20T05:33:58;24.60;46.80
36652;DHT22;53334;51.976;20.144;2022-11-20T05:36:31;24.60;47.00
36652;DHT22;53334;51.976;20.144;2022-11-20T05:39:05;24.60;46.80
36652;DHT22;53334;51.976;20.144;2022-11-20T05:41:39;24.60;46.90
36652;DHT22;53334;51.976;20.144;2022-11-20T05:44:13;24.60;46.90
36652;DHT22;53334;51.976;20.144;2022-11-20T05:46:48;24.60;46.90
36652;DHT22;53334;51.976;20.144;2022-11-20T05:49:22;24.60;46.90
36652;DHT22;53334;51.976;20.144;2022-11-20T05:51:56;24.60;46.80
36652;DHT22;53334;51.976;20.144;2022-11-20T05:54:30;24.60;46.80
36652;DHT22;53334;51.976;20.144;2022-11-20T05:57:04;24.60;46.80
36652;DHT22;53334;51.976;20.144;2022-11-20T05:59:38;24.60;46.80
36652;DHT22;53334;51.976;20.144;2022-11-20T06:02:13;24.60;46.60
36652;DHT22;53334;51.976;20.144;2022-11-20T06:04:47;24.60;46.80
36652;DHT22;53334;51.976;20.144;2022-11-20T06:07:21;24.60;46.80
36652;DHT22;53334;51.976;20.144;2022-11-20T06:09:54;24.60;46.70
36652;DHT22;53334;51.976;20.144;2022-11-20T06:12:28;24.60;46.80
36652;DHT22;53334;51.976;20.144;2022-11-20T06:15:02;24.60;46.50
36652;DHT22;53334;51.976;20.144;2022-11-20T06:17:37;24.60;46.80
36652;DHT22;53334;51.976;20.144;2022-11-20T06:20:11;24.60;46.80
36652;DHT22;53334;51.976;20.144;2022-11-20T06:22:45;24.60;46.80
36652;DHT22;53334;51.976;20.144;2022-11-20T06:25:18;24.60;46.40
36652;DHT22;53334;51.976;20.144;2022-11-20T06:27:52;24.60;46.70
36652;DHT22;53334;51.976;20.144;2022-11-20T06:30:26;24.60;46.40
36652;DHT22;53334;51.976;20.144;2022-11-20T06:33:01;24.60;46.70
36652;DHT22;53334;51.976;20.144;2022-11-20T06:35:34;24.60;46.40
36652;DHT22;53334;51.976;20.144;2022-11-20T06:38:08;24.60;46.80
36652;DHT22;53334;51.976;20.144;2022-11-20T06:40:42;24.60;46.60
36652;DHT22;53334;51.976;20.144;2022-11-20T06:43:16;24.60;46.90
36652;DHT22;53334;51.976;20.144;2022-11-20T06:45:51;24.60;46.90
36652;DHT22;53334;51.976;20.144;2022-11-20T06:48:27;24.60;46.70
36652;DHT22;53334;51.976;20.144;2022-11-20T06:51:03;24.60;47.00
36652;DHT22;53334;51.976;20.144;2022-11-20T06:53:37;24.60;47.10
36652;DHT22;53334;51.976;20.144;2022-11-20T06:56:12;24.60;47.20
36652;DHT22;53334;51.976;20.144;2022-11-20T06:58:45;24.60;46.80
36652;DHT22;53334;51.976;20.144;2022-11-20T07:01:19;24.60;46.10
36652;DHT22;53334;51.976;20.144;2022-11-20T07:03:55;24.60;46.50
36652;DHT22;53334;51.976;20.144;2022-11-20T07:06:28;24.60;46.40
36652;DHT22;53334;51.976;20.144;2022-11-20T07:09:02;24.60;46.30
36652;DHT22;53334;51.976;20.144;2022-11-20T07:11:43;24.60;46.00
36652;DHT22;53334;51.976;20.144;2022-11-20T07:14:17;24.60;46.30
36652;DHT22;53334;51.976;20.144;2022-11-20T07:16:51;24.50;45.80
36652;DHT22;53334;51.976;20.144;2022-11-20T07:19:26;24.60;46.00
36652;DHT22;53334;51.976;20.144;2022-11-20T07:22:00;24.60;45.70
36652;DHT22;53334;51.976;20.144;2022-11-20T07:24:33;24.60;45.40
36652;DHT22;53334;51.976;20.144;2022-11-20T07:27:07;24.60;45.10
36652;DHT22;53334;51.976;20.144;2022-11-20T07:29:41;24.60;44.90
36652;DHT22;53334;51.976;20.144;2022-11-20T07:32:14;24.60;44.80
36652;DHT22;53334;51.976;20.144;2022-11-20T07:34:50;24.70;44.70
36652;DHT22;53334;51.976;20.144;2022-11-20T07:37:24;24.70;44.40
36652;DHT22;53334;51.976;20.144;2022-11-20T07:39:57;24.70;44.30
36652;DHT22;53334;51.976;20.144;2022-11-20T07:42:31;24.70;45.20
36652;DHT22;53334;51.976;20.144;2022-11-20T07:45:07;24.80;45.50
36652;DHT22;53334;51.976;20.144;2022-11-20T07:47:41;24.80;46.00
36652;DHT22;53334;51.976;20.144;2022-11-20T07:50:16;24.90;46.30
36652;DHT22;53334;51.976;20.144;2022-11-20T07:52:50;24.90;46.70
36652;DHT22;53334;51.976;20.144;2022-11-20T07:55:24;25.00;46.60
36652;DHT22;53334;51.976;20.144;2022-11-20T07:57:58;25.00;48.10
36652;DHT22;53334;51.976;20.144;2022-11-20T08:00:32;25.00;48.80
36652;DHT22;53334;51.976;20.144;2022-11-20T08:03:06;25.00;48.40
36652;DHT22;53334;51.976;20.144;2022-11-20T08:05:42;25.00;48.10
36652;DHT22;53334;51.976;20.144;2022-11-20T08:08:16;25.00;47.60
36652;DHT22;53334;51.976;20.144;2022-11-20T08:10:49;25.00;47.20
36652;DHT22;53334;51.976;20.144;2022-11-20T08:13:23;25.00;31.80
36652;DHT22;53334;51.976;20.144;2022-11-20T08:16:14;24.90;33.00
36652;DHT22;53334;51.976;20.144;2022-11-20T08:18:48;24.60;29.60
36652;DHT22;53334;51.976;20.144;2022-11-20T08:21:23;24.50;30.70
36652;DHT22;53334;51.976;20.144;2022-11-20T08:23:58;24.40;31.60
36652;DHT22;53334;51.976;20.144;2022-11-20T08:26:32;24.40;33.10
36652;DHT22;53334;51.976;20.144;2022-11-20T08:29:06;24.30;34.90
36652;DHT22;53334;51.976;20.144;2022-11-20T08:31:40;24.30;34.00
36652;DHT22;53334;51.976;20.144;2022-11-20T08:34:13;24.30;34.60
36652;DHT22;53334;51.976;20.144;2022-11-20T08:36:51;24.30;36.30
36652;DHT22;53334;51.976;20.144;2022-11-20T08:39:25;24.30;34.90
36652;DHT22;53334;51.976;20.144;2022-11-20T08:41:59;24.30;34.70
36652;DHT22;53334;51.976;20.144;2022-11-20T08:44:32;24.30;35.60
36652;DHT22;53334;51.976;20.144;2022-11-20T08:47:06;24.30;37.00
36652;DHT22;53334;51.976;20.144;2022-11-20T08:49:40;24.30;36.60
36652;DHT22;53334;51.976;20.144;2022-11-20T08:52:15;24.40;37.40
36652;DHT22;53334;51.976;20.144;2022-11-20T08:54:49;24.40;37.00
36652;DHT22;53334;51.976;20.144;2022-11-20T08:57:22;24.30;37.00
36652;DHT22;53334;51.976;20.144;2022-11-20T08:59:56;24.30;37.70
36652;DHT22;53334;51.976;20.144;2022-11-20T09:02:37;24.30;36.90
36652;DHT22;53334;51.976;20.144;2022-11-20T09:05:11;24.30;36.70
36652;DHT22;53334;51.976;20.144;2022-11-20T09:07:46;24.30;37.60
36652;DHT22;53334;51.976;20.144;2022-11-20T09:10:20;24.30;36.80
36652;DHT22;53334;51.976;20.144;2022-11-20T09:12:56;24.30;36.60
36652;DHT22;53334;51.976;20.144;2022-11-20T09:15:31;24.30;37.20
36652;DHT22;53334;51.976;20.144;2022-11-20T09:18:05;24.30;36.60
36652;DHT22;53334;51.976;20.144;2022-11-20T09:20:39;24.30;36.60
36652;DHT22;53334;51.976;20.144;2022-11-20T09:23:14;24.30;36.50
36652;DHT22;53334;51.976;20.144;2022-11-20T09:25:48;24.30;36.60
36652;DHT22;53334;51.976;20.144;2022-11-20T09:28:22;24.30;36.60
36652;DHT22;53334;51.976;20.144;2022-11-20T09:30:56;24.30;37.50
36652;DHT22;53334;51.976;20.144;2022-11-20T09:33:29;24.30;37.00
36652;DHT22;53334;51.976;20.144;2022-11-20T09:36:03;24.20;37.80
36652;DHT22;53334;51.976;20.144;2022-11-20T09:38:39;24.30;37.10
36652;DHT22;53334;51.976;20.144;2022-11-20T09:41:31;24.30;37.20
36652;DHT22;53334;51.976;20.144;2022-11-20T09:44:13;24.20;36.80
36652;DHT22;53334;51.976;20.144;2022-11-20T09:46:54;24.30;37.40
36652;DHT22;53334;51.976;20.144;2022-11-20T09:49:38;24.30;37.10
36652;DHT22;53334;51.976;20.144;2022-11-20T09:52:29;24.30;37.10
36652;DHT22;53334;51.976;20.144;2022-11-20T09:55:09;24.30;37.50
36652;DHT22;53334;51.976;20.144;2022-11-20T09:57:47;24.30;37.00
36652;DHT22;53334;51.976;20.144;2022-11-20T10:00:22;24.20;37.00
36652;DHT22;53334;51.976;20.144;2022-11-20T10:03:00;24.30;36.90
36652;DHT22;53334;51.976;20.144;2022-11-20T10:05:40;24.30;37.00
36652;DHT22;53334;51.976;20.144;2022-11-20T10:08:19;24.30;36.90
36652;DHT22;53334;51.976;20.144;2022-11-20T10:11:00;24.30;36.90
36652;DHT22;53334;51.976;20.144;2022-11-20T10:13:46;24.30;37.00
36652;DHT22;53334;51.976;20.144;2022-11-20T10:16:30;24.30;37.30
36652;DHT22;53334;51.976;20.144;2022-11-20T10:19:27;24.30;37.00
36652;DHT22;53334;51.976;20.144;2022-11-20T10:22:09;24.30;37.40
36652;DHT22;53334;51.976;20.144;2022-11-20T10:24:55;24.30;37.20
36652;DHT22;53334;51.976;20.144;2022-11-20T10:27:48;24.30;37.50
36652;DHT22;53334;51.976;20.144;2022-11-20T10:30:25;24.30;37.10
36652;DHT22;53334;51.976;20.144;2022-11-20T10:33:03;24.30;36.90
36652;DHT22;53334;51.976;20.144;2022-11-20T10:35:41;24.30;36.80
36652;DHT22;53334;51.976;20.144;2022-11-20T10:38:21;24.30;36.80
36652;DHT22;53334;51.976;20.144;2022-11-20T10:40:59;24.30;36.80
36652;DHT22;53334;51.976;20.144;2022-11-20T10:43:53;24.30;36.70
36652;DHT22;53334;51.976;20.144;2022-11-20T10:46:35;24.30;36.80
36652;DHT22;53334;51.976;20.144;2022-11-20T10:49:13;24.30;36.60
36652;DHT22;53334;51.976;20.144;2022-11-20T10:52:00;24.30;36.70
36652;DHT22;53334;51.976;20.144;2022-11-20T10:54:43;24.30;37.10
36652;DHT22;53334;51.976;20.144;2022-11-20T10:57:27;24.30;36.80
36652;DHT22;53334;51.976;20.144;2022-11-20T11:00:09;24.30;36.60
36652;DHT22;53334;51.976;20.144;2022-11-20T11:02:47;24.30;36.60
36652;DHT22;53334;51.976;20.144;2022-11-20T11:05:27;24.30;37.00
36652;DHT22;53334;51.976;20.144;2022-11-20T11:08:08;24.30;37.10
36652;DHT22;53334;51.976;20.144;2022-11-20T11:10:47;24.30;37.00
36652;DHT22;53334;51.976;20.144;2022-11-20T11:13:27;24.30;37.20
36652;DHT22;53334;51.976;20.144;2022-11-20T11:16:03;24.30;37.30
36652;DHT22;53334;51.976;20.144;2022-11-20T11:18:37;24.30;37.20
36652;DHT22;53334;51.976;20.144;2022-11-20T11:21:12;24.30;37.40
36652;DHT22;53334;51.976;20.144;2022-11-20T11:23:46;24.30;37.30
36652;DHT22;53334;51.976;20.144;2022-11-20T11:26:22;24.30;37.20
36652;DHT22;53334;51.976;20.144;2022-11-20T11:28:57;24.30;37.20
36652;DHT22;53334;51.976;20.144;2022-11-20T11:31:34;24.30;37.00
36652;DHT22;53334;51.976;20.144;2022-11-20T11:34:13;24.30;37.00
36652;DHT22;53334;51.976;20.144;2022-11-20T11:36:52;24.30;36.90
36652;DHT22;53334;51.976;20.144;2022-11-20T11:39:31;24.30;37.00
36652;DHT22;53334;51.976;20.144;2022-11-20T11:42:07;24.30;36.80
36652;DHT22;53334;51.976;20.144;2022-11-20T11:44:46;24.30;36.80
36652;DHT22;53334;51.976;20.144;2022-11-20T11:47:45;24.30;36.80
36652;DHT22;53334;51.976;20.144;2022-11-20T11:50:21;24.30;37.00
36652;DHT22;53334;51.976;20.144;2022-11-20T11:53:02;24.20;36.80
36652;DHT22;53334;51.976;20.144;2022-11-20T11:55:42;24.20;36.90
36652;DHT22;53334;51.976;20.144;2022-11-20T11:58:33;24.30;37.00
36652;DHT22;53334;51.976;20.144;2022-11-20T12:01:17;24.20;36.70
36652;DHT22;53334;51.976;20.144;2022-11-20T12:04:04;24.20;36.70
36652;DHT22;53334;51.976;20.144;2022-11-20T12:06:39;24.30;36.90
36652;DHT22;53334;51.976;20.144;2022-11-20T12:09:18;24.20;36.50
36652;DHT22;53334;51.976;20.144;2022-11-20T12:11:58;24.20;36.40
36652;DHT22;53334;51.976;20.144;2022-11-20T12:14:34;24.20;36.40
36652;DHT22;53334;51.976;20.144;2022-11-20T12:17:11;24.20;36.40
36652;DHT22;53334;51.976;20.144;2022-11-20T12:19:47;24.20;36.50
36652;DHT22;53334;51.976;20.144;2022-11-20T12:22:29;24.20;36.40
36652;DHT22;53334;51.976;20.144;2022-11-20T12:25:07;24.20;36.40
36652;DHT22;53334;51.976;20.144;2022-11-20T12:27:51;24.20;36.50
36652;DHT22;53334;51.976;20.144;2022-11-20T12:30:27;24.20;36.50
36652;DHT22;53334;51.976;20.144;2022-11-20T12:33:10;24.20;36.50
36652;DHT22;53334;51.976;20.144;2022-11-20T12:36:06;24.20;36.70
36652;DHT22;53334;51.976;20.144;2022-11-20T12:39:11;24.20;36.90
36652;DHT22;53334;51.976;20.144;2022-11-20T12:42:08;24.20;36.60
36652;DHT22;53334;51.976;20.144;2022-11-20T12:45:10;24.20;36.70
36652;DHT22;53334;51.976;20.144;2022-11-20T12:47:56;24.20;36.50
36652;DHT22;53334;51.976;20.144;2022-11-20T12:50:43;24.20;36.40
36652;DHT22;53334;51.976;20.144;2022-11-20T12:53:46;24.20;36.50
36652;DHT22;53334;51.976;20.144;2022-11-20T12:56:33;24.20;36.50
36652;DHT22;53334;51.976;20.144;2022-11-20T12:59:27;24.20;36.50
36652;DHT22;53334;51.976;20.144;2022-11-20T13:02:18;24.20;36.40
36652;DHT22;53334;51.976;20.144;2022-11-20T13:05:11;24.20;36.30
36652;DHT22;53334;51.976;20.144;2022-11-20T13:07:52;24.20;36.80
36652;DHT22;53334;51.976;20.144;2022-11-20T13:10:34;24.20;36.40
36652;DHT22;53334;51.976;20.144;2022-11-20T13:13:14;24.20;36.40
36652;DHT22;53334;51.976;20.144;2022-11-20T13:15:55;24.20;36.40
36652;DHT22;53334;51.976;20.144;2022-11-20T13:18:36;24.10;36.50
36652;DHT22;53334;51.976;20.144;2022-11-20T13:21:16;24.20;36.60
36652;DHT22;53334;51.976;20.144;2022-11-20T13:23:50;24.20;36.50
36652;DHT22;53334;51.976;20.144;2022-11-20T13:26:26;24.20;36.50
36652;DHT22;53334;51.976;20.144;2022-11-20T13:29:07;24.20;36.60
36652;DHT22;53334;51.976;20.144;2022-11-20T13:31:44;24.10;36.70
36652;DHT22;53334;51.976;20.144;2022-11-20T13:34:24;24.20;36.70
36652;DHT22;53334;51.976;20.144;2022-11-20T13:36:59;24.20;36.70
36652;DHT22;53334;51.976;20.144;2022-11-20T13:39:36;24.10;36.60
36652;DHT22;53334;51.976;20.144;2022-11-20T13:42:25;24.10;36.60
36652;DHT22;53334;51.976;20.144;2022-11-20T13:45:08;24.10;36.50
36652;DHT22;53334;51.976;20.144;2022-11-20T13:47:48;24.10;36.60
36652;DHT22;53334;51.976;20.144;2022-11-20T13:50:40;24.10;36.50
36652;DHT22;53334;51.976;20.144;2022-11-20T13:53:38;24.10;36.90
36652;DHT22;53334;51.976;20.144;2022-11-20T13:56:24;24.10;37.20
36652;DHT22;53334;51.976;20.144;2022-11-20T13:59:07;24.10;37.40
36652;DHT22;53334;51.976;20.144;2022-11-20T14:01:46;24.10;37.40
36652;DHT22;53334;51.976;20.144;2022-11-20T14:04:26;24.10;37.00
36652;DHT22;53334;51.976;20.144;2022-11-20T14:07:00;24.10;37.30
36652;DHT22;53334;51.976;20.144;2022-11-20T14:09:35;24.20;37.00
36652;DHT22;53334;51.976;20.144;2022-11-20T14:12:16;24.10;37.10
36652;DHT22;53334;51.976;20.144;2022-11-20T14:14:54;24.10;37.50
36652;DHT22;53334;51.976;20.144;2022-11-20T14:17:31;24.20;37.30
36652;DHT22;53334;51.976;20.144;2022-11-20T14:20:07;24.20;37.20
36652;DHT22;53334;51.976;20.144;2022-11-20T14:22:49;24.10;37.10
36652;DHT22;53334;51.976;20.144;2022-11-20T14:25:25;24.10;37.20
36652;DHT22;53334;51.976;20.144;2022-11-20T14:28:01;24.10;37.20
36652;DHT22;53334;51.976;20.144;2022-11-20T14:30:42;24.20;37.10
36652;DHT22;53334;51.976;20.144;2022-11-20T14:33:17;24.10;37.10
36652;DHT22;53334;51.976;20.144;2022-11-20T14:35:53;24.20;37.00
36652;DHT22;53334;51.976;20.144;2022-11-20T14:38:31;24.20;37.20
36652;DHT22;53334;51.976;20.144;2022-11-20T14:41:06;24.10;36.80
36652;DHT22;53334;51.976;20.144;2022-11-20T14:43:45;24.10;36.90
36652;DHT22;53334;51.976;20.144;2022-11-20T14:46:22;24.10;37.20
36652;DHT22;53334;51.976;20.144;2022-11-20T14:48:57;24.20;37.00
36652;DHT22;53334;51.976;20.144;2022-11-20T14:51:35;24.10;37.00
36652;DHT22;53334;51.976;20.144;2022-11-20T14:54:15;24.10;37.00
36652;DHT22;53334;51.976;20.144;2022-11-20T14:56:54;24.10;37.10
36652;DHT22;53334;51.976;20.144;2022-11-20T14:59:30;24.10;37.40
36652;DHT22;53334;51.976;20.144;2022-11-20T15:02:08;24.20;37.20
36652;DHT22;53334;51.976;20.144;2022-11-20T15:04:47;24.10;37.30
36652;DHT22;53334;51.976;20.144;2022-11-20T15:07:25;24.10;37.20
36652;DHT22;53334;51.976;20.144;2022-11-20T15:10:05;24.10;37.20
36652;DHT22;53334;51.976;20.144;2022-11-20T15:12:46;24.10;37.10
36652;DHT22;53334;51.976;20.144;2022-11-20T15:15:23;24.10;37.00
36652;DHT22;53334;51.976;20.144;2022-11-20T15:18:00;24.10;37.00
36652;DHT22;53334;51.976;20.144;2022-11-20T15:20:36;24.10;37.10
36652;DHT22;53334;51.976;20.144;2022-11-20T15:23:11;24.10;37.00
36652;DHT22;53334;51.976;20.144;2022-11-20T15:25:46;24.10;36.90
36652;DHT22;53334;51.976;20.144;2022-11-20T15:28:22;24.10;36.90
36652;DHT22;53334;51.976;20.144;2022-11-20T15:31:01;24.10;36.90
36652;DHT22;53334;51.976;20.144;2022-11-20T15:33:37;24.10;37.10
36652;DHT22;53334;51.976;20.144;2022-11-20T15:36:11;24.10;37.50
36652;DHT22;53334;51.976;20.144;2022-11-20T15:38:45;24.10;37.60
36652;DHT22;53334;51.976;20.144;2022-11-20T15:41:19;24.10;37.60
36652;DHT22;53334;51.976;20.144;2022-11-20T15:43:53;24.10;37.80
36652;DHT22;53334;51.976;20.144;2022-11-20T15:46:28;24.10;38.10
36652;DHT22;53334;51.976;20.144;2022-11-20T15:49:05;24.10;38.60
36652;DHT22;53334;51.976;20.144;2022-11-20T15:51:41;24.10;38.50
36652;DHT22;53334;51.976;20.144;2022-11-20T15:54:18;24.10;38.80
36652;DHT22;53334;51.976;20.144;2022-11-20T15:56:54;24.10;39.10
36652;DHT22;53334;51.976;20.144;2022-11-20T15:59:28;24.20;39.30
36652;DHT22;53334;51.976;20.144;2022-11-20T16:02:04;24.20;39.60
36652;DHT22;53334;51.976;20.144;2022-11-20T16:04:41;24.20;39.80
36652;DHT22;53334;51.976;20.144;2022-11-20T16:07:15;24.20;40.00
36652;DHT22;53334;51.976;20.144;2022-11-20T16:09:49;24.20;40.20
36652;DHT22;53334;51.976;20.144;2022-11-20T16:12:23;24.20;40.50
36652;DHT22;53334;51.976;20.144;2022-11-20T16:15:11;24.20;40.70
36652;DHT22;53334;51.976;20.144;2022-11-20T16:18:02;24.20;41.30
36652;DHT22;53334;51.976;20.144;2022-11-20T16:20:38;24.20;41.00